首页
METAR-TAF:

METAR-TAF

机场 :

Bluefield, 西維吉尼亞州, 美国

纬度: 37-17-45N, 经度: 081-12-28W, 海拔: 871米

当前天气观测

该预报发布于11分钟前的15:52 UTC
风速8节,风向
温度 4°C
湿度 56%
气压 1027 hPa
能見度: 16.1公里
天空无云

METAR: KBLF 081552Z AUTO 17008KT 10SM CLR 04/M04 A3033 RMK AO2 SLP281 T00441039

时间: 11:03 (16:03 UTC)

预报

该预报发布于4小时和24分钟前的11:39 UTC
预报有效从08日的 12点(UTC)到 09日的 12点(UTC)
风速8节,风向南转南东,有时为16节阵风
能見度: 10公里
少量云层高于700英尺
从 08日的 1400点(UTC)
风速7节,风向南转南东
能見度: 10公里
散云层高于3500英尺
散云层高于25000英尺
从 09日的 0300点(UTC)
风速7节,风向南转南东
能見度: 10公里
多云层高于4500英尺
阴天层高于20000英尺
从 09日的 0900点(UTC)
风速12节,风向
能見度: 10公里
阴天层高于4500英尺

TAF: KBLF 081139Z 0812/0912 16008G16KT P6SM FEW007 FM081400 15007KT P6SM SCT035 SCT250 FM090300 15007KT P6SM BKN045 OVC200 FM090900 17012KT P6SM OVC045

超过4000个机场的气象观测和天气预报(METAR&TAF报告)。

可查询的气象台以黄色和红色小点在地图上表示。

将鼠标移到小点上方,可查看气象台名称。

然后点击查看天气观测和预报。

如需切换地图:点击带黑十字的绿色按钮放大地图;点击带横线的绿色按钮缩小地图;或者点击绿色箭头查看邻近地区的地图。


METAR-TAF: